createdAt,value
2018-11-13T00:01:12.904Z,97661.28
2018-11-13T00:03:40.963Z,97670.25
2018-11-13T00:06:09.008Z,97674.28
2018-11-13T00:08:37.096Z,97681.05
2018-11-13T00:11:05.191Z,97696.27
2018-11-13T00:13:33.272Z,97695.61
2018-11-13T00:16:01.303Z,97686.69
2018-11-13T00:18:29.403Z,97698.97
2018-11-13T00:20:57.483Z,97697.54
2018-11-13T00:23:25.541Z,97686.84
2018-11-13T00:25:53.589Z,97696.04
2018-11-13T00:28:21.671Z,97700.83
2018-11-13T00:30:50.371Z,97707.52
2018-11-13T00:33:18.422Z,97696.77
2018-11-13T00:35:46.481Z,97690.14
2018-11-13T00:38:14.572Z,97702.56
2018-11-13T00:40:42.624Z,97706.34
2018-11-13T00:43:10.710Z,97705.06
2018-11-13T00:45:38.823Z,97698.39
2018-11-13T00:48:06.860Z,97695.89
2018-11-13T00:50:34.932Z,97696.72
2018-11-13T00:53:02.990Z,97687.23
2018-11-13T00:55:32.002Z,97692.77
2018-11-13T00:58:00.084Z,97699.97
2018-11-13T01:00:28.170Z,97710.91
2018-11-13T01:02:56.212Z,97707.92
2018-11-13T01:05:24.469Z,97712.57
2018-11-13T01:07:52.468Z,97719.20
2018-11-13T01:10:21.548Z,97714.94
2018-11-13T01:12:50.053Z,97711.48
2018-11-13T01:15:19.228Z,97713.50
2018-11-13T01:17:48.009Z,97723.77
2018-11-13T01:20:16.716Z,97729.87
2018-11-13T01:22:44.775Z,97725.09
2018-11-13T01:25:13.881Z,97734.31
2018-11-13T01:27:42.345Z,97738.97
2018-11-13T01:30:11.755Z,97741.91
2018-11-13T01:32:40.845Z,97743.18
2018-11-13T01:35:11.583Z,97739.41
2018-11-13T01:37:39.624Z,97741.03
2018-11-13T01:40:14.385Z,97740.45
2018-11-13T01:42:42.681Z,97733.95
2018-11-13T01:45:12.485Z,97739.36
2018-11-13T01:47:40.650Z,97739.70
2018-11-13T01:50:09.471Z,97742.60
2018-11-13T01:52:37.934Z,97741.64
2018-11-13T01:55:07.950Z,97744.74
2018-11-13T01:57:38.229Z,97749.79
2018-11-13T02:00:16.446Z,97762.89
2018-11-13T02:02:45.798Z,97756.38
2018-11-13T02:05:13.882Z,97761.27
2018-11-13T02:07:41.946Z,97774.50
2018-11-13T02:10:10.013Z,97764.30
2018-11-13T02:12:38.132Z,97773.52
2018-11-13T02:15:07.174Z,97781.55
2018-11-13T02:17:35.638Z,97785.46
2018-11-13T02:20:04.573Z,97779.39
2018-11-13T02:22:32.652Z,97797.88
2018-11-13T02:25:00.729Z,97774.30
2018-11-13T02:27:28.808Z,97796.08
2018-11-13T02:29:56.886Z,97793.92
2018-11-13T02:32:24.977Z,97788.01
2018-11-13T02:34:53.061Z,97800.41
2018-11-13T02:37:21.145Z,97794.08
2018-11-13T02:39:49.224Z,97792.50
2018-11-13T02:42:17.311Z,97796.54
2018-11-13T02:44:45.409Z,97795.53
2018-11-13T02:47:14.046Z,97788.25
2018-11-13T02:49:42.161Z,97801.08
2018-11-13T02:52:10.263Z,97796.03
2018-11-13T02:54:38.358Z,97800.06
2018-11-13T02:57:06.468Z,97794.84
2018-11-13T02:59:34.564Z,97804.08
2018-11-13T03:02:02.661Z,97810.00
2018-11-13T03:04:30.928Z,97811.23
2018-11-13T03:06:59.008Z,97813.96
2018-11-13T03:09:27.096Z,97818.00
2018-11-13T03:11:55.173Z,97816.72
2018-11-13T03:14:23.252Z,97800.24
2018-11-13T03:16:51.358Z,97810.43
2018-11-13T03:19:19.454Z,97818.91
2018-11-13T03:21:47.532Z,97827.48
2018-11-13T03:24:15.613Z,97833.28
2018-11-13T03:26:44.124Z,97838.95
2018-11-13T03:29:12.301Z,97842.33
2018-11-13T03:31:40.552Z,97841.13
2018-11-13T03:34:08.511Z,97849.92
2018-11-13T03:36:36.621Z,97849.92
2018-11-13T03:39:06.749Z,97852.47
2018-11-13T03:41:34.862Z,97857.17
2018-11-13T03:44:02.968Z,97859.53
2018-11-13T03:46:31.054Z,97847.06
2018-11-13T03:48:59.137Z,97853.43
2018-11-13T03:51:27.221Z,97857.70
2018-11-13T03:53:55.389Z,97852.08
2018-11-13T03:56:23.447Z,97859.41
2018-11-13T03:58:51.525Z,97860.16
2018-11-13T04:01:19.597Z,97861.95
2018-11-13T04:03:47.655Z,97858.45
2018-11-13T04:06:15.750Z,97862.39
2018-11-13T04:08:43.836Z,97875.89
2018-11-13T04:11:11.894Z,97877.55
2018-11-13T04:13:39.973Z,97885.16
2018-11-13T04:16:08.044Z,97884.88
2018-11-13T04:18:36.138Z,97889.65
2018-11-13T04:21:04.232Z,97896.41
2018-11-13T04:23:32.345Z,97900.88
2018-11-13T04:26:00.428Z,97888.63
2018-11-13T04:28:28.510Z,97892.32
2018-11-13T04:30:56.590Z,97902.98
2018-11-13T04:33:24.640Z,97905.72
2018-11-13T04:35:52.693Z,97905.73
2018-11-13T04:38:20.752Z,97899.05
2018-11-13T04:40:48.814Z,97909.09
2018-11-13T04:43:16.886Z,97910.91
2018-11-13T04:45:44.975Z,97909.56
2018-11-13T04:48:13.054Z,97905.64
2018-11-13T04:50:41.132Z,97907.63
2018-11-13T04:53:09.238Z,97915.96
2018-11-13T04:55:37.312Z,97917.55
2018-11-13T04:58:05.801Z,97925.45
2018-11-13T05:00:33.881Z,97933.17
2018-11-13T05:03:02.081Z,97936.67
2018-11-13T05:05:30.045Z,97941.06
2018-11-13T05:07:58.096Z,97936.84
2018-11-13T05:10:26.643Z,97939.39
2018-11-13T05:12:54.716Z,97950.41
2018-11-13T05:15:22.790Z,97941.50
2018-11-13T05:17:50.856Z,97959.20
2018-11-13T05:20:19.249Z,97954.51
2018-11-13T05:22:47.346Z,97956.14
2018-11-13T05:25:18.867Z,97954.67
2018-11-13T05:27:46.938Z,97963.98
2018-11-13T05:30:18.484Z,97971.36
2018-11-13T05:32:46.672Z,97971.31
2018-11-13T05:35:16.074Z,97967.20
2018-11-13T05:37:44.585Z,97969.69
2018-11-13T05:40:14.926Z,97970.88
2018-11-13T05:42:43.000Z,97975.73
2018-11-13T05:45:13.274Z,97985.00
2018-11-13T05:47:41.340Z,97993.09
2018-11-13T05:50:11.266Z,98004.59
2018-11-13T05:52:39.835Z,98011.59
2018-11-13T05:55:08.214Z,98022.17
2018-11-13T05:57:36.265Z,98030.26
2018-11-13T06:00:04.764Z,98034.13
2018-11-13T06:02:32.832Z,98041.55
2018-11-13T06:05:00.892Z,98041.30
2018-11-13T06:07:28.978Z,98037.20
2018-11-13T06:09:57.052Z,98039.03
2018-11-13T06:12:25.227Z,98045.23
2018-11-13T06:14:53.278Z,98056.00
2018-11-13T06:17:21.334Z,98050.66
2018-11-13T06:19:49.422Z,98058.45
2018-11-13T06:22:17.577Z,98057.61
2018-11-13T06:24:45.644Z,98050.98
2018-11-13T06:27:13.748Z,98053.31
2018-11-13T06:29:41.894Z,98050.52
2018-11-13T06:32:10.344Z,98062.10
2018-11-13T06:34:38.909Z,98063.81
2018-11-13T06:37:07.018Z,98070.52
2018-11-13T06:39:35.141Z,98092.48
2018-11-13T06:42:03.219Z,98099.61
2018-11-13T06:44:31.299Z,98101.38
2018-11-13T06:46:59.370Z,98107.31
2018-11-13T06:49:27.574Z,98099.90
2018-11-13T06:51:55.917Z,98109.58
2018-11-13T06:54:35.457Z,98112.95
2018-11-13T06:57:03.578Z,98120.27
2018-11-13T06:59:31.656Z,98123.02
2018-11-13T07:01:59.721Z,98128.65
2018-11-13T07:04:27.809Z,98124.17
2018-11-13T07:06:55.882Z,98113.91
2018-11-13T07:09:23.961Z,98118.27
2018-11-13T07:11:52.025Z,98119.02
2018-11-13T07:14:20.140Z,98116.91
2018-11-13T07:16:48.231Z,98112.66
2018-11-13T07:19:16.297Z,98118.63
2018-11-13T07:21:44.370Z,98126.34
2018-11-13T07:24:12.473Z,98123.06
2018-11-13T07:26:40.512Z,98136.56
2018-11-13T07:29:08.608Z,98141.11
2018-11-13T07:31:36.715Z,98154.35
2018-11-13T07:34:04.917Z,98161.38
2018-11-13T07:36:32.989Z,98169.02
2018-11-13T07:39:01.075Z,98177.31
2018-11-13T07:41:29.149Z,98180.48
2018-11-13T07:43:57.257Z,98186.75
2018-11-13T07:46:25.316Z,98194.64
2018-11-13T07:48:53.426Z,98195.61
2018-11-13T07:51:21.540Z,98189.89
2018-11-13T07:53:49.587Z,98197.53
2018-11-13T07:56:17.749Z,98206.38
2018-11-13T07:58:45.867Z,98214.12
2018-11-13T08:01:14.011Z,98219.00
2018-11-13T08:03:42.172Z,98223.94
2018-11-13T08:06:10.197Z,98226.59
2018-11-13T08:08:38.233Z,98227.52
2018-11-13T08:11:06.354Z,98242.05
2018-11-13T08:13:35.164Z,98241.50
2018-11-13T08:16:03.250Z,98237.50
2018-11-13T08:18:32.034Z,98244.08
2018-11-13T08:21:00.067Z,98243.10
2018-11-13T08:23:28.171Z,98253.59
2018-11-13T08:25:56.286Z,98236.74
2018-11-13T08:28:24.392Z,98228.34
2018-11-13T08:30:52.494Z,98225.69
2018-11-13T08:33:20.603Z,98222.84
2018-11-13T08:35:48.713Z,98224.92
2018-11-13T08:38:16.764Z,98221.44
2018-11-13T08:40:44.842Z,98212.20
2018-11-13T08:43:12.905Z,98206.04
2018-11-13T08:45:41.021Z,98205.70
2018-11-13T08:48:09.110Z,98216.22
2018-11-13T08:50:37.347Z,98217.48
2018-11-13T08:53:05.820Z,98223.02
2018-11-13T08:55:33.978Z,98219.16
2018-11-13T08:58:02.033Z,98228.30
2018-11-13T09:00:30.148Z,98225.70
2018-11-13T09:02:58.197Z,98232.69
2018-11-13T09:05:26.286Z,98227.40
2018-11-13T09:07:54.345Z,98222.91
2018-11-13T09:10:22.416Z,98218.09
2018-11-13T09:12:50.492Z,98233.16
2018-11-13T09:15:20.093Z,98231.72
2018-11-13T09:17:48.170Z,98237.55
2018-11-13T09:20:17.660Z,98252.28
2018-11-13T09:22:45.751Z,98252.42
2018-11-13T09:25:19.228Z,98260.09
2018-11-13T09:27:47.350Z,98253.59
2018-11-13T09:30:16.897Z,98264.72
2018-11-13T09:32:45.149Z,98260.59
2018-11-13T09:35:14.357Z,98250.91
2018-11-13T09:37:42.640Z,98242.54
2018-11-13T09:40:13.855Z,98262.77
2018-11-13T09:42:42.714Z,98276.59
2018-11-13T09:45:11.798Z,98281.06
2018-11-13T09:47:40.398Z,98290.23
2018-11-13T09:50:11.321Z,98292.95
2018-11-13T09:52:39.706Z,98294.63
2018-11-13T09:55:09.617Z,98301.81
2018-11-13T09:57:37.766Z,98297.91
2018-11-13T10:00:12.920Z,98294.22
2018-11-13T10:02:41.659Z,98296.17
2018-11-13T10:05:09.850Z,98294.39
2018-11-13T10:07:37.200Z,98305.62
2018-11-13T10:10:06.730Z,98309.37
2018-11-13T10:12:34.753Z,98300.73
2018-11-13T10:15:02.903Z,98299.35
2018-11-13T10:17:31.016Z,98298.92
2018-11-13T10:19:59.085Z,98298.81
2018-11-13T10:22:27.163Z,98303.27
2018-11-13T10:24:55.256Z,98298.52
2018-11-13T10:27:23.314Z,98304.68
2018-11-13T10:29:51.375Z,98312.82
2018-11-13T10:32:19.469Z,98320.90
2018-11-13T10:34:47.620Z,98324.58
2018-11-13T10:37:15.670Z,98320.90
2018-11-13T10:39:43.726Z,98321.00
2018-11-13T10:42:11.809Z,98310.54
2018-11-13T10:44:39.918Z,98311.20
2018-11-13T10:47:08.084Z,98336.81
2018-11-13T10:49:36.139Z,98338.05
2018-11-13T10:52:04.257Z,98339.16
2018-11-13T10:54:32.288Z,98347.36
2018-11-13T10:57:00.385Z,98346.59
2018-11-13T10:59:28.459Z,98352.56
2018-11-13T11:02:00.561Z,98343.91
2018-11-13T11:04:34.139Z,98338.41
2018-11-13T11:07:02.162Z,98331.62
2018-11-13T11:09:30.261Z,98346.66
2018-11-13T11:11:58.358Z,98341.12
2018-11-13T11:14:26.442Z,98357.65
2018-11-13T11:16:54.538Z,98370.91
2018-11-13T11:19:22.694Z,98370.37
2018-11-13T11:21:51.138Z,98355.74
2018-11-13T11:24:19.324Z,98355.41
2018-11-13T11:26:47.355Z,98366.15
2018-11-13T11:29:15.433Z,98364.56
2018-11-13T11:31:44.006Z,98366.25
2018-11-13T11:34:12.082Z,98382.66
2018-11-13T11:36:40.154Z,98380.94
2018-11-13T11:39:10.114Z,98387.38
2018-11-13T11:41:38.420Z,98386.47
2018-11-13T11:44:07.138Z,98373.15
2018-11-13T11:46:35.229Z,98382.44
2018-11-13T11:49:03.877Z,98379.75
2018-11-13T11:51:33.072Z,98378.52
2018-11-13T11:54:01.238Z,98381.39
2018-11-13T11:56:29.225Z,98378.41
2018-11-13T11:58:57.336Z,98389.11
2018-11-13T12:01:25.484Z,98392.09
2018-11-13T12:03:53.488Z,98407.62
2018-11-13T12:06:21.600Z,98408.91
2018-11-13T12:08:49.653Z,98406.15
2018-11-13T12:11:17.714Z,98402.39
2018-11-13T12:13:45.833Z,98398.61
2018-11-13T12:16:13.979Z,98395.06
2018-11-13T12:18:42.066Z,98405.60
2018-11-13T12:21:10.083Z,98408.87
2018-11-13T12:23:38.184Z,98406.11
2018-11-13T12:26:06.269Z,98412.49
2018-11-13T12:28:34.413Z,98403.99
2018-11-13T12:31:02.608Z,98415.92
2018-11-13T12:33:30.684Z,98412.42
2018-11-13T12:35:58.776Z,98416.86
2018-11-13T12:38:26.931Z,98420.79
2018-11-13T12:40:55.047Z,98420.38
2018-11-13T12:43:23.079Z,98417.39
2018-11-13T12:45:51.145Z,98434.63
2018-11-13T12:48:19.205Z,98428.25
2018-11-13T12:50:52.732Z,98432.88
2018-11-13T12:53:20.861Z,98440.25
2018-11-13T12:55:49.134Z,98438.58
2018-11-13T12:58:17.104Z,98443.68
2018-11-13T13:00:45.252Z,98444.92
2018-11-13T13:03:13.383Z,98444.95
2018-11-13T13:05:41.489Z,98450.97
2018-11-13T13:08:09.598Z,98456.12
2018-11-13T13:10:37.693Z,98455.13
2018-11-13T13:13:05.801Z,98456.55
2018-11-13T13:15:33.876Z,98471.09
2018-11-13T13:18:02.057Z,98471.66
2018-11-13T13:20:30.114Z,98469.89
2018-11-13T13:22:58.204Z,98466.11
2018-11-13T13:25:26.374Z,98449.73
2018-11-13T13:27:54.469Z,98461.22
2018-11-13T13:30:23.957Z,98455.90
2018-11-13T13:32:52.186Z,98459.00
2018-11-13T13:35:34.133Z,98467.45
2018-11-13T13:38:02.250Z,98465.38
2018-11-13T13:40:30.361Z,98473.95
2018-11-13T13:42:58.975Z,98475.48
2018-11-13T13:45:27.129Z,98472.93
2018-11-13T13:47:55.516Z,98468.73
2018-11-13T13:50:23.581Z,98468.88
2018-11-13T13:52:51.704Z,98468.16
2018-11-13T13:55:21.227Z,98463.59
2018-11-13T13:57:48.778Z,98468.98
2018-11-13T14:00:17.180Z,98470.67
2018-11-13T14:02:45.068Z,98470.59
2018-11-13T14:05:13.142Z,98466.63
2018-11-13T14:07:41.206Z,98458.86
2018-11-13T14:10:09.901Z,98466.06
2018-11-13T14:12:37.971Z,98472.79
2018-11-13T14:15:07.659Z,98467.19
2018-11-13T14:17:35.695Z,98471.58
2018-11-13T14:20:03.794Z,98467.56
2018-11-13T14:22:31.896Z,98464.14
2018-11-13T14:24:59.986Z,98467.80
2018-11-13T14:27:28.933Z,98476.45
2018-11-13T14:29:56.970Z,98474.03
2018-11-13T14:32:25.066Z,98479.27
2018-11-13T14:34:53.169Z,98478.38
2018-11-13T14:37:21.255Z,98482.53
2018-11-13T14:39:49.475Z,98482.73
2018-11-13T14:42:17.652Z,98480.41
2018-11-13T14:44:45.752Z,98489.64
2018-11-13T14:47:14.258Z,98491.39
2018-11-13T14:49:42.328Z,98491.05
2018-11-13T14:52:10.486Z,98497.70
2018-11-13T14:54:38.552Z,98499.11
2018-11-13T14:57:06.713Z,98505.78
2018-11-13T14:59:34.861Z,98505.45
2018-11-13T15:02:03.049Z,98505.05
2018-11-13T15:04:31.169Z,98500.05
2018-11-13T15:06:59.267Z,98506.09
2018-11-13T15:09:27.394Z,98518.87
2018-11-13T15:11:55.526Z,98517.33
2018-11-13T15:14:23.581Z,98516.92
2018-11-13T15:16:51.746Z,98524.86
2018-11-13T15:19:19.833Z,98525.61
2018-11-13T15:21:47.873Z,98537.41
2018-11-13T15:24:15.964Z,98531.43
2018-11-13T15:26:44.021Z,98535.06
2018-11-13T15:29:12.128Z,98535.94
2018-11-13T15:31:40.581Z,98545.64
2018-11-13T15:34:08.711Z,98545.61
2018-11-13T15:36:36.869Z,98541.38
2018-11-13T15:39:08.601Z,98551.92
2018-11-13T15:41:36.661Z,98549.70
2018-11-13T15:44:05.120Z,98546.83
2018-11-13T15:46:33.188Z,98550.98
2018-11-13T15:49:01.306Z,98550.70
2018-11-13T15:51:29.464Z,98544.56
2018-11-13T15:53:57.498Z,98537.50
2018-11-13T15:56:25.662Z,98545.84
2018-11-13T15:58:53.752Z,98548.06
2018-11-13T16:01:21.836Z,98541.31
2018-11-13T16:03:49.948Z,98541.62
2018-11-13T16:06:18.126Z,98540.28
2018-11-13T16:08:46.332Z,98536.41
2018-11-13T16:11:14.376Z,98552.87
2018-11-13T16:13:42.422Z,98547.92
2018-11-13T16:16:10.539Z,98551.41
2018-11-13T16:18:38.725Z,98546.20
2018-11-13T16:21:06.817Z,98556.73
2018-11-13T16:23:34.867Z,98558.00
2018-11-13T16:26:02.985Z,98555.66
2018-11-13T16:28:31.050Z,98560.11
2018-11-13T16:30:59.196Z,98558.08
2018-11-13T16:33:27.224Z,98570.11
2018-11-13T16:35:55.617Z,98564.69
2018-11-13T16:38:23.810Z,98567.99
2018-11-13T16:40:51.817Z,98569.86
2018-11-13T16:43:19.976Z,98566.91
2018-11-13T16:45:48.077Z,98575.44
2018-11-13T16:48:16.266Z,98577.98
2018-11-13T16:50:44.546Z,98589.35
2018-11-13T16:53:12.629Z,98590.47
2018-11-13T16:55:46.316Z,98594.36
2018-11-13T16:58:15.608Z,98599.47
2018-11-13T17:00:43.895Z,98599.61
2018-11-13T17:03:11.921Z,98600.69
2018-11-13T17:05:40.137Z,98603.84
2018-11-13T17:08:08.131Z,98604.35
2018-11-13T17:10:39.267Z,98607.13
2018-11-13T17:13:07.330Z,98618.47
2018-11-13T17:15:35.445Z,98616.08
2018-11-13T17:18:03.977Z,98613.61
2018-11-13T17:20:32.065Z,98619.70
2018-11-13T17:23:00.132Z,98615.30
2018-11-13T17:25:30.734Z,98613.70
2018-11-13T17:27:58.797Z,98616.24
2018-11-13T17:30:29.544Z,98621.05
2018-11-13T17:32:58.834Z,98626.25
2018-11-13T17:35:27.810Z,98635.14
2018-11-13T17:37:56.599Z,98639.75
2018-11-13T17:40:27.086Z,98646.03
2018-11-13T17:42:56.575Z,98646.03
2018-11-13T17:45:26.141Z,98648.58
2018-11-13T17:47:54.266Z,98644.91
2018-11-13T17:50:29.693Z,98650.08
2018-11-13T17:52:57.955Z,98656.97
2018-11-13T17:55:26.345Z,98652.09
2018-11-13T17:57:56.071Z,98652.20
2018-11-13T18:00:27.641Z,98652.34
2018-11-13T18:02:55.777Z,98655.86
2018-11-13T18:05:25.177Z,98654.35
2018-11-13T18:07:54.008Z,98659.50
2018-11-13T18:10:22.221Z,98669.38
2018-11-13T18:12:50.286Z,98668.59
2018-11-13T18:15:21.577Z,98665.22
2018-11-13T18:17:49.961Z,98669.92
2018-11-13T18:20:21.636Z,98674.70
2018-11-13T18:22:49.748Z,98673.44
2018-11-13T18:25:17.864Z,98673.98
2018-11-13T18:27:47.421Z,98672.41
2018-11-13T18:30:17.750Z,98669.94
2018-11-13T18:32:46.267Z,98668.73
2018-11-13T18:35:15.884Z,98666.66
2018-11-13T18:37:44.469Z,98669.63
2018-11-13T18:40:14.303Z,98662.92
2018-11-13T18:42:43.595Z,98664.61
2018-11-13T18:45:15.550Z,98665.05
2018-11-13T18:47:43.676Z,98670.18
2018-11-13T18:50:14.956Z,98666.89
2018-11-13T18:52:43.363Z,98667.31
2018-11-13T18:55:12.032Z,98671.14
2018-11-13T18:57:40.838Z,98668.23
2018-11-13T19:00:13.399Z,98664.48
2018-11-13T19:02:41.915Z,98665.81
2018-11-13T19:05:10.884Z,98666.66
2018-11-13T19:07:39.398Z,98664.66
2018-11-13T19:10:13.694Z,98668.95
2018-11-13T19:12:41.936Z,98677.45
2018-11-13T19:15:11.913Z,98676.17
2018-11-13T19:17:40.014Z,98682.73
2018-11-13T19:20:10.746Z,98683.00
2018-11-13T19:22:38.866Z,98675.45
2018-11-13T19:25:07.881Z,98683.17
2018-11-13T19:27:35.950Z,98680.78
2018-11-13T19:30:04.090Z,98688.88
2018-11-13T19:32:32.084Z,98690.61
2018-11-13T19:35:00.251Z,98688.55
2018-11-13T19:37:28.306Z,98695.38
2018-11-13T19:39:56.350Z,98693.34
2018-11-13T19:42:24.417Z,98688.02
2018-11-13T19:44:52.733Z,98686.75
2018-11-13T19:47:20.805Z,98688.07
2018-11-13T19:49:48.916Z,98684.36
2018-11-13T19:52:16.981Z,98692.87
2018-11-13T19:54:45.050Z,98704.41
2018-11-13T19:57:13.141Z,98701.54
2018-11-13T19:59:41.247Z,98701.20
2018-11-13T20:02:09.325Z,98709.28
2018-11-13T20:04:37.514Z,98699.56
2018-11-13T20:07:05.758Z,98708.52
2018-11-13T20:09:33.910Z,98707.63
2018-11-13T20:12:02.023Z,98702.27
2018-11-13T20:14:30.090Z,98709.48
2018-11-13T20:16:58.201Z,98711.64
2018-11-13T20:19:26.302Z,98716.71
2018-11-13T20:21:54.382Z,98710.42
2018-11-13T20:24:22.553Z,98724.01
2018-11-13T20:26:50.573Z,98720.25
2018-11-13T20:29:18.689Z,98721.48
2018-11-13T20:31:46.806Z,98719.86
2018-11-13T20:34:14.959Z,98720.28
2018-11-13T20:36:43.082Z,98716.52
2018-11-13T20:39:12.988Z,98720.75
2018-11-13T20:41:41.157Z,98720.33
2018-11-13T20:44:09.312Z,98720.36
2018-11-13T20:46:37.439Z,98721.66
2018-11-13T20:49:05.672Z,98719.21
2018-11-13T20:51:33.890Z,98728.53
2018-11-13T20:54:01.882Z,98726.50
2018-11-13T20:56:29.985Z,98723.68
2018-11-13T20:58:58.138Z,98727.09
2018-11-13T21:01:26.293Z,98724.98
2018-11-13T21:03:54.455Z,98725.47
2018-11-13T21:06:22.656Z,98725.44
2018-11-13T21:08:50.800Z,98725.47
2018-11-13T21:11:18.916Z,98723.78
2018-11-13T21:13:47.155Z,98723.78
2018-11-13T21:16:15.370Z,98722.97
2018-11-13T21:18:43.346Z,98721.31
2018-11-13T21:21:11.429Z,98723.45
2018-11-13T21:23:39.562Z,98731.54
2018-11-13T21:26:07.684Z,98727.38
2018-11-13T21:28:35.782Z,98719.40
2018-11-13T21:31:03.862Z,98720.27
2018-11-13T21:33:31.976Z,98716.06
2018-11-13T21:36:00.066Z,98713.56
2018-11-13T21:38:28.182Z,98713.59
2018-11-13T21:40:56.317Z,98713.61
2018-11-13T21:43:24.458Z,98719.55
2018-11-13T21:45:52.505Z,98715.75
2018-11-13T21:48:20.617Z,98723.34
2018-11-13T21:50:48.681Z,98720.39
2018-11-13T21:53:16.767Z,98726.30
2018-11-13T21:55:44.963Z,98724.16
2018-11-13T21:58:12.993Z,98722.08
2018-11-13T22:00:41.139Z,98718.73
2018-11-13T22:03:09.337Z,98717.08
2018-11-13T22:05:37.853Z,98729.75
2018-11-13T22:08:06.160Z,98734.83
2018-11-13T22:10:34.217Z,98727.30
2018-11-13T22:13:02.284Z,98727.77
2018-11-13T22:15:30.916Z,98729.06
2018-11-13T22:17:59.619Z,98724.40
2018-11-13T22:20:27.445Z,98723.14
2018-11-13T22:22:57.064Z,98741.68
2018-11-13T22:25:25.848Z,98733.27
2018-11-13T22:27:55.197Z,98730.75
2018-11-13T22:30:24.703Z,98717.71
2018-11-13T22:32:52.797Z,98719.81
2018-11-13T22:35:21.814Z,98724.01
2018-11-13T22:37:49.890Z,98727.82
2018-11-13T22:40:19.374Z,98717.28
2018-11-13T22:42:47.853Z,98725.72
2018-11-13T22:45:17.763Z,98732.45
2018-11-13T22:47:45.852Z,98738.88
2018-11-13T22:50:19.562Z,98734.23
2018-11-13T22:52:48.225Z,98721.63
2018-11-13T22:55:16.728Z,98719.55
2018-11-13T22:57:45.734Z,98721.25
2018-11-13T23:00:23.007Z,98725.88
2018-11-13T23:02:52.285Z,98719.98
2018-11-13T23:05:20.669Z,98728.43
2018-11-13T23:07:48.769Z,98723.38
2018-11-13T23:10:17.438Z,98724.64
2018-11-13T23:12:45.835Z,98715.80
2018-11-13T23:15:16.376Z,98715.38
2018-11-13T23:17:44.658Z,98707.80
2018-11-13T23:20:14.529Z,98710.83
2018-11-13T23:22:42.581Z,98707.50
2018-11-13T23:25:12.426Z,98704.58
2018-11-13T23:27:40.791Z,98710.45
2018-11-13T23:30:13.638Z,98708.77
2018-11-13T23:32:41.720Z,98712.16
2018-11-13T23:35:10.752Z,98711.81
2018-11-13T23:37:38.865Z,98701.38
2018-11-13T23:40:09.250Z,98699.48
2018-11-13T23:42:37.749Z,98705.90
2018-11-13T23:45:06.533Z,98707.46
2018-11-13T23:47:34.705Z,98700.05
2018-11-13T23:50:02.958Z,98709.28
2018-11-13T23:52:31.473Z,98713.91
2018-11-13T23:54:59.549Z,98712.27
2018-11-13T23:57:27.648Z,98709.33
2018-11-13T23:59:56.313Z,98710.59
